Aviation Digital Data Service (ADDS)

Output produced by METARs form (1111 UTC 17 July 2018)
found at http://www.aviationweather.gov/adds/metars/
 
KPIB 171056Z AUTO 32003KT 6SM -RA BR SCT110 22/22 A3005 RMK AO2 RAB55 SLP175 P0000 T02220217
KPIB 170956Z AUTO 00000KT 8SM BKN120 22/22 A3004 RMK AO2 SLP170 T02220217
KPIB 170856Z AUTO 00000KT 6SM BR CLR 22/21 A3004 RMK AO2 SLP170 P0001 60001 T02170211 53003
KPIB 170824Z AUTO 00000KT 6SM BR SCT002 22/22 A3004 RMK AO2
KPIB 170805Z AUTO 00000KT 7SM BKN002 22/22 A3004 RMK AO2
KPIB 170756Z AUTO 16004KT 7SM SCT002 22/22 A3003 RMK AO2 SLP166 T02170217
KPIB 170752Z AUTO 16004KT 7SM FEW002 22/22 A3003 RMK AO2
KPIB 170656Z AUTO 17004KT 7SM CLR 22/22 A3003 RMK AO2 SLP167 T02220217
KPIB 170556Z AUTO 21003KT 10SM CLR 22/22 A3004 RMK AO2 RAB19E32 SLP169 P0000 60001 T02220222 10239 20222 403440222 50001
KPIB 170456Z AUTO 15003KT 10SM CLR 23/22 A3004 RMK AO2 SLP171 T02280222
KPIB 170356Z AUTO 00000KT 10SM CLR 23/22 A3005 RMK AO2 SLP171 T02280222 TSNO
KPIB 170320Z AUTO 00000KT 10SM FEW006 23/22 A3004 RMK AO2
KPIB 170256Z AUTO 00000KT 10SM CLR 23/22 A3004 RMK AO2 RAE31 SLP169 P0000 60001 T02280222 50002
KPIB 170156Z AUTO 28005KT 10SM -RA CLR 23/22 A3006 RMK AO2 SLP175 P0001 T02330222
KPIB 170056Z AUTO VRB04KT 10SM -RA CLR 23/23 A3006 RMK AO2 LTG DSNT NW SLP177 P0000 T02330228
KPIB 162356Z AUTO 18004KT 10SM -RA CLR 24/23 A3003 RMK AO2 SLP166 P0002 60002 T02390233 10317 20239 58010
KPIB 162311Z AUTO 13005KT 8SM -RA SCT008 24/23 A3005 RMK AO2 LTG DSNT NW P0001
KPIB 162256Z AUTO 11006KT 10SM -RA BKN008 24/23 A3006 RMK AO2 LTG DSNT NW RAB34 CIG 007V011 SLP175 P0000 T02440233
KPIB 162236Z AUTO 13007KT 10SM -RA OVC008 24/23 A3005 RMK AO2 RAB34 P0000
KPIB 162217Z AUTO 14009KT 10SM BKN010 25/23 A3005 RMK AO2 LTG DSNT S
KPIB 162156Z AUTO 16012KT 10SM FEW010 26/23 A3005 RMK AO2 LTG DSNT SE SLP173 T02560233
KPIB 162140Z AUTO 15012KT 10SM FEW017 26/23 A3006 RMK AO2 LTG DSNT ALQDS
KPIB 162114Z AUTO 11009KT 10SM BKN017 BKN037 OVC055 27/24 A3006 RMK AO2 LTG DSNT ALQDS
KPIB 162056Z AUTO VRB04KT 7SM FEW017 SCT037 BKN044 27/24 A3006 RMK AO2 LTG DSNT ALQDS TSB10E25RAB16E50 SLP176 P0000 60000 T02720239 53004
KPIB 162031Z AUTO 19005KT 10SM -RA FEW075 27/24 A3004 RMK AO2 LTG DSNT ALQDS TSB10E25RAB16 P0000
KPIB 162016Z AUTO 13005KT 10SM VCTS -RA CLR 27/24 A3004 RMK AO2 LTG DSNT ALQDS TSB10RAB16 P0000
KPIB 161956Z AUTO 21003KT 10SM CLR 26/24 A3004 RMK AO2 LTG DSNT ALQDS TSE28RAE26 PRESRR SLP169 P0000 T02610239
KPIB 161934Z AUTO 13005KT 10SM CLR 26/24 A3000 RMK AO2 LTG DSNT ALQDS TSE28RAE26 P0000
KPIB 161856Z AUTO 06007KT 10SM VCTS -RA CLR 27/24 A3002 RMK AO2 LTG DSNT ALQDS TSE22B23E40B42RAB1758 SLP163 P0000 T02720239
KPIB 161842Z AUTO 05005KT 10SM VCTS -RA CLR 28/24 A3003 RMK AO2 LTG DSNT ALQDS TSE22B23E40B42RAB1758 P0000
KPIB 161823Z AUTO 08003KT 10SM -TSRA FEW041 28/23 A3004 RMK AO2 LTG DSNT ALQDS TSE22B23RAB1758 P0000
KPIB 161756Z AUTO 36011G16KT 8SM VCTS SCT045 BKN060 32/24 A3005 RMK AO2 LTG DSNT NW-E TSB53 SLP172 T03220239 10344 20233 58007
KPIB 161656Z AUTO 00000KT 10SM BKN037 33/24 A3006 RMK AO2 SLP176 T03280239
KPIB 161556Z AUTO VRB03KT 10SM FEW030 33/25 A3007 RMK AO2 SLP178 T03330250
KPIB 161456Z AUTO VRB03KT 10SM CLR 31/24 A3007 RMK AO2 SLP180 T03060244 50006
KPIB 161356Z AUTO VRB05KT 10SM CLR 28/24 A3008 RMK AO2 SLP183 T02830244
KPIB 161256Z AUTO 00000KT 10SM CLR 25/23 A3007 RMK AO2 SLP179 T02500228
KPIB 161156Z AUTO 00000KT 7SM CLR 23/22 A3005 RMK AO2 SLP174 T02330222 10233 20222 53007
KPIB 161056Z AUTO 00000KT 6SM BR CLR 23/22 A3004 RMK AO2 SLP170 T02280222
KPIB 160956Z AUTO 00000KT 6SM BR CLR 22/22 A3003 RMK AO2 SLP166 T02220217
KPIB 160856Z AUTO 00000KT 7SM CLR 23/22 A3003 RMK AO2 SLP167 T02280222 55002
KPIB 160756Z AUTO 00000KT 7SM CLR 23/22 A3003 RMK AO2 SLP164 T02330222
KPIB 160703Z AUTO 00000KT 4SM BR CLR 23/23 A3003 RMK AO2
KPIB 160656Z AUTO 00000KT 2 1/2SM BR CLR 23/23 A3003 RMK AO2 SLP166 T02280228
KPIB 160645Z AUTO 20003KT 2SM BR CLR 23/23 A3003 RMK AO2
KPIB 160556Z AUTO 00000KT 4SM BR CLR 23/23 A3004 RMK AO2 SLP169 T02330228 10250 20233 403330228 58006
KPIB 160547Z AUTO 20003KT 2SM BR CLR 23/23 A3004 RMK AO2
KPIB 160456Z AUTO 00000KT 5SM BR CLR 23/23 A3006 RMK AO2 SLP177 T02330228
KPIB 160356Z AUTO 00000KT 8SM CLR 24/23 A3007 RMK AO2 SLP180 T02390233
KPIB 160256Z AUTO 00000KT 9SM CLR 24/23 A3006 RMK AO2 SLP175 T02390228 53003
KPIB 160156Z AUTO 00000KT 10SM CLR 24/23 A3003 RMK AO2 SLP165 T02440228
KPIB 160056Z AUTO 06003KT 10SM CLR 24/23 A3005 RMK AO2 SLP171 T02440233
KPIB 152356Z AUTO 10004KT 10SM CLR 25/23 A3005 RMK AO2 SLP172 60000 T02500233 10322 20250 53012
KPIB 152319Z AUTO 14007KT 10SM FEW008 SCT060 26/23 A3003 RMK AO2
KPIB 152256Z AUTO 20003KT 10SM CLR 26/24 A3004 RMK AO2 SLP168 T02560239
KPIB 152156Z AUTO 07006KT 10SM CLR 26/23 A3002 RMK AO2 LTG DSNT S-W SLP162 T02560233
KPIB 152056Z AUTO 04005KT 10SM CLR 26/23 A3001 RMK AO2 LTG DSNT ALQDS TSB12E29RAE26 SLP161 P0000 60000 T02560233 56008
KPIB 152035Z AUTO 11003KT 10SM FEW100 26/23 A3003 RMK AO2 LTG DSNT NE AND SE AND NW TSB12E29RAE26 P0000
KPIB 152018Z AUTO 02008KT 10SM -TSRA FEW110 26/23 A3004 RMK AO2 LTG DSNT NE AND SE AND NW TSB12 P0000
KPIB 151956Z AUTO 03011KT 10SM -RA FEW019 SCT048 BKN060 26/24 A3003 RMK AO2 LTG DSNT ALQDS RAB48 SLP167 P0000 T02610239
KPIB 151856Z AUTO 03004KT 10SM FEW055 31/25 A3002 RMK AO2 LTG DSNT NW-E RAB23E34 SLP161 P0000 T03060250
KPIB 151756Z AUTO 04005KT 10SM FEW060 SCT070 SCT095 29/25 A3004 RMK AO2 LTG DSNT N-E TSB15E55 SLP169 T02940250 10333 20244 58012
KPIB 151721Z AUTO VRB04KT 10SM VCTS SCT036 BKN048 BKN060 32/25 A3005 RMK AO2 LTG DSNT N AND E TSB15
KPIB 151656Z AUTO 29004KT 10SM FEW033 33/25 A3006 RMK AO2 SLP175 T03280250
KPIB 151556Z AUTO 30005KT 10SM FEW030 32/25 A3007 RMK AO2 SLP179 T03220250
KPIB 151456Z AUTO 32006KT 10SM CLR 32/25 A3008 RMK AO2 SLP180 T03170250 50003
KPIB 151356Z AUTO 32005KT 10SM CLR 29/24 A3008 RMK AO2 SLP182 T02890244
KPIB 151256Z AUTO 32004KT 10SM CLR 27/24 A3007 RMK AO2 SLP180 T02670244
KPIB 151156Z AUTO VRB03KT 7SM CLR 24/23 A3007 RMK AO2 SLP178 T02440233 10250 20228 53007
KPIB 151056Z AUTO 00000KT 5SM BR CLR 23/23 A3006 RMK AO2 SLP175 T02330228
KPIB 150956Z AUTO 00000KT 7SM CLR 23/22 A3005 RMK AO2 SLP171 T02330222
KPIB 150856Z AUTO 00000KT 8SM CLR 24/23 A3004 RMK AO2 SLP170 T02390228 55005
KPIB 150756Z AUTO 00000KT 10SM CLR 24/23 A3004 RMK AO2 SLP169 T02390228
KPIB 150656Z AUTO 19005KT 10SM CLR 24/23 A3005 RMK AO2 SLP172 T02440233
KPIB 150556Z AUTO 33003KT 10SM CLR 25/23 A3006 RMK AO2 SLP176 60000 T02500233 10333 20250 403610228 50000
KPIB 150456Z AUTO 21004KT 10SM CLR 25/23 A3006 RMK AO2 SLP177 T02500233
KPIB 150356Z AUTO 29004KT 10SM FEW100 26/24 A3006 RMK AO2 SLP174 T02610239
KPIB 150256Z AUTO 00000KT 10SM FEW045 SCT050 SCT080 27/24 A3006 RMK AO2 LTG DSNT S AND SW TSE31RAE08 SLP175 P0000 60000 T02720239 51015
KPIB 150237Z AUTO 00000KT 10SM SCT045 27/23 A3005 RMK AO2 LTG DSNT E-SW TSE31RAE08 P0000
KPIB 150156Z AUTO VRB04KT 10SM -TSRA SCT050 27/23 A3004 RMK AO2 LTG DSNT ALQDS TSB06E47B49RAB30 SLP169 P0000 T02670233
KPIB 150149Z AUTO 20006KT 10SM -TSRA SCT050 27/23 A3004 RMK AO2 LTG DSNT ALQDS TSB06E47B49RAB30 P0000
KPIB 150112Z AUTO VRB04KT 10SM TS SCT055 29/24 A3004 RMK AO2 LTG DSNT NE AND SW TSB06
KPIB 150056Z AUTO VRB04KT 10SM FEW060 30/24 A3003 RMK AO2 LTG DSNT E AND SW TSB10E25 SLP167 T03000244
KPIB 150031Z AUTO 00000KT 10SM CLR 30/26 A3003 RMK AO2 LTG DSNT SW AND W TSB10E25
KPIB 150016Z AUTO 00000KT 10SM VCTS CLR 32/26 A3001 RMK AO2 LTG DSNT S-W TSB10
KPIB 142356Z AUTO 00000KT 10SM FEW050 33/24 A3001 RMK AO2 LTG DSNT S AND SW TSB34E49 SLP161 T03330244 10361 20322 56001
KPIB 142340Z AUTO 00000KT 10SM VCTS SCT050 34/24 A3001 RMK AO2 LTG DSNT ALQDS TSB34
KPIB 142256Z AUTO 00000KT 10SM CLR 34/23 A3001 RMK AO2 SLP158 T03440228
KPIB 142156Z AUTO VRB03KT 10SM FEW048 35/23 A3002 RMK AO2 SLP161 T03500233
KPIB 142056Z AUTO 32003KT 10SM SCT050 35/23 A3003 RMK AO2 SLP165 T03500233 56024
KPIB 141956Z AUTO 32003KT 10SM CLR 35/23 A3005 RMK AO2 SLP172 T03500233
KPIB 141856Z AUTO 00000KT 10SM SCT050 BKN055 BKN085 33/23 A3007 RMK AO2 LTG DSNT NW SLP181 T03280233
KPIB 141756Z AUTO 00000KT 10SM BKN046 OVC065 33/23 A3010 RMK AO2 SLP190 T03280228 10333 20239 58007
KPIB 141656Z AUTO 00000KT 10SM BKN042 BKN060 33/23 A3011 RMK AO2 SLP193 T03280233
KPIB 141556Z AUTO 02005KT 10SM CLR 33/24 A3012 RMK AO2 SLP196 T03280239
KPIB 141456Z AUTO 34006KT 10SM CLR 32/24 A3012 RMK AO2 SLP197 T03170244 51006
KPIB 141356Z AUTO 32006KT 10SM CLR 29/24 A3012 RMK AO2 SLP196 T02940244
KPIB 141256Z AUTO VRB03KT 9SM CLR 26/24 A3011 RMK AO2 SLP194 T02610239 TSNO
KPIB 141156Z AUTO 00000KT 4SM BR CLR 24/23 A3011 RMK AO2 SLP191 70010 T02390228 10244 20228 51006
KPIB 141153Z AUTO 00000KT 3SM BR CLR 24/23 A3010 RMK AO2
KPIB 141112Z AUTO 00000KT 2 1/2SM BR CLR 23/22 A3009 RMK AO2